createdAt,value
2022-11-20T00:05:08.170Z,15.47
2022-11-20T00:07:36.397Z,15.17
2022-11-20T00:10:04.002Z,14.40
2022-11-20T00:12:31.350Z,16.77
2022-11-20T00:14:59.407Z,15.30
2022-11-20T00:17:26.775Z,15.87
2022-11-20T00:19:53.932Z,15.47
2022-11-20T00:27:58.530Z,15.47
2022-11-20T00:30:26.655Z,17.97
2022-11-20T00:32:56.691Z,20.23
2022-11-20T00:35:24.019Z,18.33
2022-11-20T00:37:51.961Z,18.47
2022-11-20T00:40:19.251Z,18.47
2022-11-20T00:42:46.278Z,20.73
2022-11-20T00:45:14.743Z,19.53
2022-11-20T00:53:15.515Z,16.80
2022-11-20T00:55:53.364Z,17.60
2022-11-20T00:58:24.725Z,15.57
2022-11-20T01:00:52.241Z,15.37
2022-11-20T01:03:25.628Z,15.47
2022-11-20T01:05:54.395Z,14.43
2022-11-20T01:08:27.038Z,15.63
2022-11-20T01:10:54.841Z,17.27
2022-11-20T01:18:52.668Z,14.97
2022-11-20T01:21:23.022Z,14.73
2022-11-20T01:23:50.901Z,13.87
2022-11-20T01:26:21.471Z,13.13
2022-11-20T01:28:49.113Z,13.83
2022-11-20T01:31:18.466Z,13.40
2022-11-20T01:33:48.794Z,11.73
2022-11-20T01:36:17.736Z,11.30
2022-11-20T01:44:17.660Z,13.30
2022-11-20T01:46:56.932Z,12.97
2022-11-20T01:49:28.085Z,13.10
2022-11-20T01:52:00.903Z,15.10
2022-11-20T01:54:36.320Z,15.37
2022-11-20T01:57:05.916Z,16.43
2022-11-20T01:59:36.562Z,14.03
2022-11-20T02:02:03.963Z,15.10
2022-11-20T02:10:06.595Z,16.97
2022-11-20T02:12:52.263Z,15.77
2022-11-20T02:15:20.390Z,19.53
2022-11-20T02:17:48.411Z,33.00
2022-11-20T02:20:15.921Z,18.50
2022-11-20T02:22:49.930Z,17.40
2022-11-20T02:25:19.667Z,15.90
2022-11-20T02:33:21.247Z,12.97
2022-11-20T02:35:48.472Z,15.00
2022-11-20T02:38:16.915Z,14.73
2022-11-20T02:40:44.992Z,13.43
2022-11-20T02:43:13.255Z,15.70
2022-11-20T02:45:41.311Z,16.10
2022-11-20T02:48:09.137Z,15.30
2022-11-20T02:50:40.566Z,14.37
2022-11-20T02:56:17.473Z,14.80
2022-11-20T02:58:44.861Z,13.97
2022-11-20T03:01:12.316Z,17.50
2022-11-20T03:03:39.676Z,15.33
2022-11-20T03:06:08.163Z,17.10
2022-11-20T03:08:36.374Z,17.63
2022-11-20T03:11:05.817Z,15.67
2022-11-20T03:13:35.341Z,13.80
2022-11-20T03:21:41.320Z,16.03
2022-11-20T03:24:11.724Z,17.60
2022-11-20T03:26:40.790Z,16.23
2022-11-20T03:29:08.273Z,16.80
2022-11-20T03:31:37.802Z,18.00
2022-11-20T03:34:05.740Z,13.63
2022-11-20T03:36:33.682Z,14.47
2022-11-20T03:42:30.108Z,17.37
2022-11-20T03:44:57.493Z,14.73
2022-11-20T03:47:24.831Z,16.90
2022-11-20T03:49:53.576Z,17.33
2022-11-20T03:52:21.423Z,16.90
2022-11-20T03:54:48.952Z,18.30
2022-11-20T03:57:17.962Z,18.60
2022-11-20T04:05:18.963Z,23.03
2022-11-20T04:07:46.222Z,17.13
2022-11-20T04:10:13.793Z,16.07
2022-11-20T04:12:41.134Z,16.10
2022-11-20T04:15:09.843Z,16.00
2022-11-20T04:17:37.183Z,18.27
2022-11-20T04:20:05.422Z,16.23
2022-11-20T04:22:34.000Z,20.03
2022-11-20T04:30:36.194Z,18.10
2022-11-20T04:33:04.032Z,18.57
2022-11-20T04:35:31.903Z,18.93
2022-11-20T04:37:59.213Z,18.27
2022-11-20T04:40:26.433Z,18.97
2022-11-20T04:42:53.811Z,18.60
2022-11-20T04:45:22.970Z,20.27
2022-11-20T04:47:52.170Z,20.63
2022-11-20T04:55:53.029Z,17.53
2022-11-20T04:58:20.431Z,16.47
2022-11-20T05:00:52.223Z,18.93
2022-11-20T05:03:20.249Z,14.90
2022-11-20T05:05:47.552Z,19.73
2022-11-20T05:08:15.530Z,19.97
2022-11-20T05:10:42.853Z,17.00
2022-11-20T05:18:40.309Z,22.50
2022-11-20T05:21:08.552Z,24.03
2022-11-20T05:23:36.810Z,25.37
2022-11-20T05:26:05.680Z,34.60
2022-11-20T05:28:34.246Z,38.63
2022-11-20T05:31:07.537Z,19.63
2022-11-20T05:33:36.152Z,21.50
2022-11-20T05:36:20.552Z,24.73
2022-11-20T05:44:21.721Z,20.13
2022-11-20T05:46:49.100Z,16.80
2022-11-20T05:49:16.322Z,15.30
2022-11-20T05:51:44.082Z,17.10
2022-11-20T05:54:11.352Z,13.90
2022-11-20T05:56:38.842Z,14.73
2022-11-20T05:59:06.282Z,12.97
2022-11-20T06:01:36.394Z,13.07
2022-11-20T06:09:37.272Z,7.83
2022-11-20T06:12:05.232Z,7.27
2022-11-20T06:14:37.789Z,9.80
2022-11-20T06:32:38.253Z,19.07
2022-11-20T06:35:06.482Z,13.40
2022-11-20T06:37:53.390Z,15.27
2022-11-20T06:45:06.911Z,13.27
2022-11-20T06:47:35.300Z,13.67
2022-11-20T06:50:02.683Z,11.93
2022-11-20T06:52:30.203Z,8.27
2022-11-20T06:54:57.450Z,10.03
2022-11-20T06:57:25.473Z,9.90
2022-11-20T06:59:53.263Z,5.23
2022-11-20T07:02:21.610Z,4.17
2022-11-20T07:10:18.971Z,4.87
2022-11-20T07:12:51.754Z,5.20
2022-11-20T07:15:19.922Z,5.73
2022-11-20T07:17:47.117Z,6.50
2022-11-20T07:20:15.114Z,13.27
2022-11-20T07:22:42.803Z,15.87
2022-11-20T07:25:15.384Z,40.27
2022-11-20T07:33:16.808Z,50.13
2022-11-20T07:35:44.735Z,49.57
2022-11-20T07:38:12.341Z,39.40
2022-11-20T07:40:40.204Z,44.37
2022-11-20T07:43:08.336Z,43.87
2022-11-20T07:45:35.990Z,43.50
2022-11-20T07:48:03.672Z,49.83
2022-11-20T07:50:31.671Z,47.27
2022-11-20T07:58:35.498Z,51.30
2022-11-20T08:01:06.948Z,49.67
2022-11-20T08:03:35.181Z,52.53
2022-11-20T08:06:03.170Z,54.67
2022-11-20T08:08:33.630Z,49.37
2022-11-20T08:11:15.830Z,48.13
2022-11-20T08:14:02.753Z,40.93
2022-11-20T08:22:03.666Z,49.23
2022-11-20T08:24:30.826Z,31.50
2022-11-20T08:26:59.712Z,37.00
2022-11-20T08:29:28.053Z,32.83
2022-11-20T08:31:55.633Z,28.57
2022-11-20T08:34:23.163Z,38.87
2022-11-20T08:36:50.882Z,25.30
2022-11-20T08:44:46.814Z,16.03
2022-11-20T08:47:13.822Z,12.03
2022-11-20T08:49:41.260Z,35.73
2022-11-20T08:52:12.553Z,19.43
2022-11-20T08:54:40.023Z,23.50
2022-11-20T08:57:07.562Z,42.20
2022-11-20T09:05:34.654Z,20.23
2022-11-20T09:08:02.878Z,27.80
2022-11-20T09:10:33.024Z,37.63
2022-11-20T09:13:00.974Z,23.17
2022-11-20T09:15:29.353Z,32.40
2022-11-20T09:18:00.477Z,28.63
2022-11-20T09:20:30.963Z,36.83
2022-11-20T09:22:58.776Z,35.70
2022-11-20T09:31:00.502Z,38.00
2022-11-20T09:33:29.307Z,35.20
2022-11-20T09:36:00.103Z,31.20
2022-11-20T09:38:30.662Z,29.13
2022-11-20T09:41:04.415Z,28.80
2022-11-20T09:43:50.523Z,30.33
2022-11-20T09:46:34.249Z,30.83
2022-11-20T09:54:42.722Z,33.00
2022-11-20T09:57:16.385Z,37.20
2022-11-20T09:59:45.320Z,42.27
2022-11-20T10:02:30.146Z,32.57
2022-11-20T10:05:04.519Z,23.40
2022-11-20T10:07:38.142Z,32.10
2022-11-20T10:10:15.696Z,30.03
2022-11-20T10:18:24.768Z,33.67
2022-11-20T10:21:03.588Z,32.47
2022-11-20T10:24:06.441Z,46.03
2022-11-20T10:26:45.246Z,37.60
2022-11-20T10:29:15.818Z,39.67
2022-11-20T10:31:50.013Z,41.27
2022-11-20T10:42:58.562Z,39.33
2022-11-20T10:45:44.970Z,43.30
2022-11-20T10:48:17.234Z,36.20
2022-11-20T10:51:05.820Z,42.87
2022-11-20T10:53:47.501Z,37.37
2022-11-20T10:56:21.703Z,47.00
2022-11-20T11:04:27.942Z,25.37
2022-11-20T11:06:59.687Z,31.27
2022-11-20T11:09:34.660Z,37.13
2022-11-20T11:12:07.024Z,27.43
2022-11-20T11:14:45.394Z,29.57
2022-11-20T11:17:31.422Z,33.40
2022-11-20T11:20:03.546Z,35.87
2022-11-20T11:28:07.896Z,23.17
2022-11-20T11:30:45.606Z,30.47
2022-11-20T11:33:22.912Z,16.83
2022-11-20T11:35:52.881Z,27.53
2022-11-20T11:38:26.150Z,23.90
2022-11-20T11:40:56.834Z,9.27
2022-11-20T11:43:45.477Z,23.03
2022-11-20T11:46:29.201Z,4.53
2022-11-20T11:54:31.772Z,14.93
2022-11-20T11:57:02.461Z,21.07
2022-11-20T11:59:43.795Z,7.60
2022-11-20T12:02:25.689Z,5.83
2022-11-20T12:05:01.474Z,26.23
2022-11-20T12:07:46.942Z,8.30
2022-11-20T12:10:24.876Z,12.20
2022-11-20T12:18:28.703Z,9.90
2022-11-20T12:21:10.180Z,7.70
2022-11-20T12:23:48.043Z,6.63
2022-11-20T12:26:26.163Z,7.53
2022-11-20T12:29:10.303Z,9.07
2022-11-20T12:32:01.374Z,7.67
2022-11-20T12:35:10.070Z,8.90
2022-11-20T12:53:26.103Z,8.77
2022-11-20T12:56:04.823Z,8.20
2022-11-20T12:58:44.681Z,10.17
2022-11-20T13:01:39.531Z,11.53
2022-11-20T13:04:20.116Z,9.03
2022-11-20T13:06:48.144Z,10.77
2022-11-20T13:09:25.772Z,10.80
2022-11-20T13:20:04.635Z,12.63
2022-11-20T13:22:48.841Z,26.90
2022-11-20T13:25:28.072Z,28.17
2022-11-20T13:27:57.521Z,25.67
2022-11-20T13:30:31.214Z,32.20
2022-11-20T13:33:12.972Z,21.87
2022-11-20T13:35:44.476Z,28.37
2022-11-20T13:38:17.022Z,30.67
2022-11-20T13:54:35.740Z,10.57
2022-11-20T13:57:20.340Z,15.47
2022-11-20T13:59:58.976Z,15.27
2022-11-20T14:02:29.771Z,17.63
2022-11-20T14:05:03.553Z,8.83
2022-11-20T14:07:38.528Z,10.10
2022-11-20T14:13:13.191Z,7.50
2022-11-20T14:15:45.394Z,7.70
2022-11-20T14:18:19.430Z,22.87
2022-11-20T14:20:53.359Z,13.73
2022-11-20T14:23:34.210Z,18.30
2022-11-20T14:26:05.258Z,19.23
2022-11-20T14:28:47.340Z,20.93
2022-11-20T14:34:13.400Z,12.43
2022-11-20T14:36:41.945Z,24.10
2022-11-20T14:39:15.301Z,14.63
2022-11-20T14:41:54.907Z,16.87
2022-11-20T14:44:28.288Z,12.93
2022-11-20T14:46:59.730Z,12.23
2022-11-20T14:49:32.974Z,18.03
2022-11-20T15:00:27.551Z,30.17
2022-11-20T15:03:02.452Z,34.37
2022-11-20T15:06:05.262Z,26.27
2022-11-20T15:08:37.023Z,31.10
2022-11-20T15:11:19.841Z,44.73
2022-11-20T15:13:53.322Z,35.33
2022-11-20T15:16:31.073Z,30.63
2022-11-20T15:22:11.624Z,24.03
2022-11-20T15:24:48.922Z,25.27
2022-11-20T15:27:17.211Z,37.90
2022-11-20T15:29:45.880Z,32.43
2022-11-20T15:32:18.306Z,24.93
2022-11-20T15:34:47.830Z,22.70
2022-11-20T15:37:29.872Z,31.33
2022-11-20T15:45:27.173Z,23.60
2022-11-20T15:48:00.240Z,26.17
2022-11-20T15:50:35.052Z,30.87
2022-11-20T15:53:07.844Z,26.90
2022-11-20T15:55:38.273Z,19.27
2022-11-20T15:58:12.293Z,24.37
2022-11-20T16:00:46.300Z,28.03
2022-11-20T16:06:03.603Z,27.23
2022-11-20T16:08:33.290Z,32.57
2022-11-20T16:11:01.653Z,22.37
2022-11-20T16:13:51.082Z,26.07
2022-11-20T16:16:22.490Z,32.67
2022-11-20T16:18:54.041Z,30.47
2022-11-20T16:21:28.998Z,27.73
2022-11-20T16:23:59.523Z,28.83
2022-11-20T16:31:37.053Z,21.43
2022-11-20T16:34:11.924Z,18.77
2022-11-20T16:36:42.700Z,20.97
2022-11-20T16:39:12.413Z,19.23
2022-11-20T16:41:40.912Z,19.93
2022-11-20T16:44:23.494Z,19.70
2022-11-20T16:46:58.032Z,15.43
2022-11-20T16:52:36.011Z,18.13
2022-11-20T16:55:07.470Z,13.23
2022-11-20T16:57:39.032Z,12.47
2022-11-20T17:00:10.363Z,10.17
2022-11-20T17:02:41.432Z,9.90
2022-11-20T17:05:12.721Z,8.57
2022-11-20T17:07:42.259Z,6.57
2022-11-20T17:15:21.720Z,5.23
2022-11-20T17:17:53.381Z,5.20
2022-11-20T17:20:24.376Z,5.23
2022-11-20T17:22:55.311Z,4.30
2022-11-20T17:25:29.490Z,4.83
2022-11-20T17:28:01.741Z,4.00
2022-11-20T17:30:35.701Z,5.97
2022-11-20T17:35:49.989Z,4.27
2022-11-20T17:38:20.931Z,5.30
2022-11-20T17:40:52.511Z,4.37
2022-11-20T17:43:23.200Z,4.67
2022-11-20T17:45:56.221Z,5.40
2022-11-20T17:48:27.041Z,5.90
2022-11-20T17:51:03.642Z,5.13
2022-11-20T17:58:42.219Z,5.87
2022-11-20T18:01:11.082Z,4.50
2022-11-20T18:03:42.073Z,5.37
2022-11-20T18:06:11.161Z,5.03
2022-11-20T18:08:44.499Z,5.27
2022-11-20T18:11:18.212Z,5.03
2022-11-20T18:14:07.321Z,5.37
2022-11-20T18:19:22.821Z,5.23
2022-11-20T18:22:10.628Z,5.47
2022-11-20T18:24:44.389Z,6.93
2022-11-20T18:27:20.101Z,6.10
2022-11-20T18:32:47.071Z,7.10
2022-11-20T18:35:27.028Z,9.87
2022-11-20T18:37:57.170Z,25.87
2022-11-20T18:43:47.114Z,8.97
2022-11-20T18:46:14.490Z,16.40
2022-11-20T18:48:43.741Z,9.93
2022-11-20T18:51:16.144Z,7.03
2022-11-20T18:53:47.547Z,13.17
2022-11-20T18:56:17.228Z,6.87
2022-11-20T18:58:46.012Z,7.13
2022-11-20T19:09:01.940Z,20.40
2022-11-20T19:11:44.348Z,26.43
2022-11-20T19:14:21.747Z,5.10
2022-11-20T19:16:52.819Z,7.07
2022-11-20T19:19:29.350Z,4.23
2022-11-20T19:22:11.889Z,4.80
2022-11-20T19:25:02.510Z,2.70
2022-11-20T19:27:34.249Z,2.40
2022-11-20T19:35:17.039Z,1.67
2022-11-20T19:37:46.121Z,1.30
2022-11-20T19:40:18.818Z,1.27
2022-11-20T19:42:52.199Z,1.30
2022-11-20T19:45:25.225Z,1.10
2022-11-20T19:48:12.668Z,1.40
2022-11-20T19:50:42.173Z,1.50
2022-11-20T20:00:59.703Z,1.23
2022-11-20T20:03:31.489Z,1.20
2022-11-20T20:06:04.011Z,1.60
2022-11-20T20:08:34.922Z,1.50
2022-11-20T20:11:15.191Z,1.53
2022-11-20T20:13:47.418Z,1.40
2022-11-20T20:16:19.522Z,1.80
2022-11-20T20:18:51.700Z,1.50
2022-11-20T20:29:13.401Z,1.40
2022-11-20T20:31:41.187Z,1.77
2022-11-20T20:34:11.329Z,1.60
2022-11-20T20:36:41.230Z,1.63
2022-11-20T20:39:14.350Z,1.93
2022-11-20T20:41:45.740Z,1.70
2022-11-20T20:44:34.608Z,1.97
2022-11-20T20:54:57.900Z,1.70
2022-11-20T20:57:28.619Z,1.43
2022-11-20T21:00:00.432Z,1.80
2022-11-20T21:02:32.869Z,2.00
2022-11-20T21:05:02.860Z,1.90
2022-11-20T21:07:32.255Z,2.80
2022-11-20T21:10:03.671Z,1.93
2022-11-20T21:12:31.001Z,2.10
2022-11-20T21:20:25.531Z,2.43
2022-11-20T21:22:53.472Z,1.40
2022-11-20T21:25:27.620Z,1.67
2022-11-20T21:27:55.208Z,2.67
2022-11-20T21:30:23.281Z,1.77
2022-11-20T21:32:51.439Z,1.70
2022-11-20T21:35:21.059Z,1.70
2022-11-20T21:37:48.688Z,1.60
2022-11-20T21:45:22.382Z,3.80
2022-11-20T21:47:50.312Z,2.03
2022-11-20T21:50:18.458Z,2.37
2022-11-20T21:52:46.271Z,2.50
2022-11-20T21:55:13.653Z,2.00
2022-11-20T21:57:40.971Z,2.43
2022-11-20T22:00:10.931Z,2.40
2022-11-20T22:02:40.383Z,2.37
2022-11-20T22:05:09.014Z,1.97
2022-11-20T22:12:42.049Z,2.33
2022-11-20T22:15:10.009Z,2.20
2022-11-20T22:17:56.469Z,2.40
2022-11-20T22:20:24.559Z,1.80
2022-11-20T22:22:52.554Z,2.10
2022-11-20T22:25:20.908Z,2.40
2022-11-20T22:27:51.531Z,1.93
2022-11-20T22:32:58.667Z,2.00
2022-11-20T22:35:26.380Z,2.30
2022-11-20T22:37:53.859Z,2.03
2022-11-20T22:40:21.855Z,2.93
2022-11-20T22:42:49.570Z,1.43
2022-11-20T22:45:17.771Z,2.00
2022-11-20T22:47:45.110Z,1.60
2022-11-20T22:50:13.568Z,1.33
2022-11-20T22:57:41.721Z,1.50
2022-11-20T23:00:34.680Z,1.87
2022-11-20T23:03:02.096Z,1.87
2022-11-20T23:05:32.211Z,1.50
2022-11-20T23:07:59.807Z,1.50
2022-11-20T23:10:27.274Z,1.57
2022-11-20T23:12:56.329Z,1.30
2022-11-20T23:15:25.841Z,2.10
2022-11-20T23:25:36.981Z,1.57
2022-11-20T23:28:04.932Z,1.57
2022-11-20T23:30:33.149Z,1.40
2022-11-20T23:33:00.558Z,1.13
2022-11-20T23:35:31.008Z,1.47
2022-11-20T23:37:58.521Z,1.50
2022-11-20T23:40:26.019Z,1.63
2022-11-20T23:45:52.201Z,1.23
2022-11-20T23:48:21.839Z,1.40
2022-11-20T23:50:50.288Z,1.27
2022-11-20T23:53:18.344Z,1.47
2022-11-20T23:55:47.319Z,2.77
2022-11-20T23:58:15.900Z,3.07
